Time;durP1;ratioP1;P1;durP2;ratioP2;P2;SDS_P1;SDS_P2;PMS_P1;PMS_P2;Temp;Humidity;BMP_temperature;BMP_pressure;BME280_temperature;BME280_humidity;BME280_pressure;Samples;Min_cycle;Max_cycle;Signal;HPM_P1;HPM_P2
2023/12/09 00:01:07;;;;;;;130.00;44.90;;;7.50;99.90;;;;;;5096263;28;20069;-79
2023/12/09 00:03:32;;;;;;;141.23;47.97;;;7.50;99.90;;;;;;5096412;28;20414;-77
2023/12/09 00:05:58;;;;;;;137.23;49.40;;;7.50;99.90;;;;;;5096361;28;20040;-77
2023/12/09 00:08:24;;;;;;;135.05;48.63;;;7.50;99.90;;;;;;5097052;28;20050;-76
2023/12/09 00:10:50;;;;;;;132.45;45.67;;;7.50;99.90;;;;;;5097020;28;20039;-76
2023/12/09 00:13:16;;;;;;;129.45;47.38;;;7.50;99.90;;;;;;5078984;28;20075;-77
2023/12/09 00:15:42;;;;;;;136.98;44.42;;;7.50;99.90;;;;;;5062783;28;20039;-76
2023/12/09 00:18:08;;;;;;;146.07;49.35;;;7.50;99.90;;;;;;5078980;28;20044;-76
2023/12/09 00:20:34;;;;;;;123.13;42.13;;;7.50;99.90;;;;;;5095426;28;20427;-77
2023/12/09 00:22:59;;;;;;;122.25;39.75;;;7.50;99.90;;;;;;5095269;28;20040;-76
2023/12/09 00:25:25;;;;;;;149.02;50.35;;;7.50;99.90;;;;;;5078446;28;20603;-76
2023/12/09 00:27:51;;;;;;;130.85;48.55;;;7.50;99.90;;;;;;5094952;28;20118;-76
2023/12/09 00:30:17;;;;;;;139.20;47.33;;;7.50;99.90;;;;;;5078690;28;20039;-76
2023/12/09 00:32:42;;;;;;;144.48;50.47;;;7.50;99.90;;;;;;5095149;28;20039;-76
2023/12/09 00:35:08;;;;;;;128.57;46.17;;;7.50;99.90;;;;;;5113309;28;20511;-78
2023/12/09 00:37:34;;;;;;;136.30;47.25;;;7.50;99.90;;;;;;5094869;28;20067;-76
2023/12/09 00:39:59;;;;;;;130.18;47.60;;;7.50;99.90;;;;;;5094908;28;20047;-77
2023/12/09 00:42:25;;;;;;;126.65;47.10;;;7.50;99.90;;;;;;5095089;28;20127;-77
2023/12/09 00:44:51;;;;;;;132.90;46.92;;;7.50;99.90;;;;;;5095543;28;20035;-76
2023/12/09 00:47:16;;;;;;;127.50;45.25;;;7.50;99.90;;;;;;5095187;28;20032;-77
2023/12/09 00:49:42;;;;;;;122.80;45.75;;;7.50;99.90;;;;;;5095176;28;20507;-77
2023/12/09 00:52:08;;;;;;;126.95;45.38;;;7.50;99.90;;;;;;5095136;28;20044;-76
2023/12/09 00:54:33;;;;;;;119.30;46.65;;;7.50;99.90;;;;;;5078227;28;20046;-77
2023/12/09 00:56:59;;;;;;;108.28;45.40;;;7.50;99.90;;;;;;5098137;28;20059;-77
2023/12/09 00:59:25;;;;;;;110.93;44.80;;;7.50;99.90;;;;;;5098531;28;20043;-77
2023/12/09 01:01:51;;;;;;;111.55;44.25;;;7.50;99.90;;;;;;5099246;28;20136;-77
2023/12/09 01:04:16;;;;;;;108.78;43.50;;;7.50;99.90;;;;;;5099155;28;20042;-76
2023/12/09 01:06:42;;;;;;;96.45;43.10;;;7.50;99.90;;;;;;5099051;28;20126;-77
2023/12/09 01:09:08;;;;;;;101.55;41.70;;;7.50;99.90;;;;;;5065280;28;20042;-78
2023/12/09 01:11:33;;;;;;;102.53;43.20;;;7.50;99.90;;;;;;5098829;28;20093;-79
2023/12/09 01:13:59;;;;;;;101.97;42.15;;;7.50;99.90;;;;;;5098513;28;20545;-77
2023/12/09 01:16:25;;;;;;;106.75;43.13;;;7.50;99.90;;;;;;5081665;28;20079;-76
2023/12/09 01:18:50;;;;;;;93.40;40.97;;;7.50;99.90;;;;;;5098598;28;20044;-77
2023/12/09 01:21:16;;;;;;;94.72;42.08;;;7.50;99.90;;;;;;5098426;28;20505;-76
2023/12/09 01:23:42;;;;;;;89.47;41.22;;;7.50;99.90;;;;;;5098405;28;20130;-76
2023/12/09 01:26:08;;;;;;;94.47;41.58;;;7.50;99.90;;;;;;5081538;28;20031;-77
2023/12/09 01:28:33;;;;;;;96.78;42.65;;;7.50;99.90;;;;;;5081557;28;20035;-76
2023/12/09 01:30:59;;;;;;;92.95;36.70;;;7.50;99.90;;;;;;5081536;28;20510;-77
2023/12/09 01:33:25;;;;;;;83.70;37.30;;;7.50;99.90;;;;;;5081413;28;20112;-77
2023/12/09 01:35:51;;;;;;;84.97;37.15;;;7.50;99.90;;;;;;5098375;28;20039;-77
2023/12/09 01:38:16;;;;;;;93.57;38.08;;;7.50;99.90;;;;;;5098296;28;20038;-76
2023/12/09 01:40:42;;;;;;;85.82;37.60;;;7.50;99.90;;;;;;5097875;28;20043;-76
2023/12/09 01:43:09;;;;;;;75.93;34.35;;;7.60;99.90;;;;;;5098147;28;20040;-77
2023/12/09 01:45:35;;;;;;;85.43;36.13;;;7.60;99.90;;;;;;5081208;28;20031;-76
2023/12/09 01:48:02;;;;;;;85.60;35.45;;;7.60;99.90;;;;;;5080759;28;20039;-78
2023/12/09 01:50:30;;;;;;;86.15;36.78;;;7.60;99.90;;;;;;5064363;28;20039;-77
2023/12/09 01:52:57;;;;;;;89.32;37.60;;;7.60;99.90;;;;;;5097951;28;20040;-77
2023/12/09 01:55:24;;;;;;;94.68;38.15;;;7.60;99.90;;;;;;5097715;28;20093;-76
2023/12/09 01:57:51;;;;;;;88.60;37.22;;;7.50;99.90;;;;;;5097540;28;20040;-77
2023/12/09 02:00:18;;;;;;;89.65;36.88;;;7.60;99.90;;;;;;5080535;28;20126;-77
2023/12/09 02:02:45;;;;;;;84.53;36.88;;;7.50;99.90;;;;;;5081211;28;20119;-77
2023/12/09 02:05:11;;;;;;;89.53;37.60;;;7.60;99.90;;;;;;5097904;28;20399;-76
2023/12/09 02:07:37;;;;;;;80.70;36.28;;;7.60;99.90;;;;;;5096976;28;20445;-76
2023/12/09 02:10:04;;;;;;;84.25;35.83;;;7.60;99.90;;;;;;5080654;28;20043;-76
2023/12/09 02:12:40;;;;;;;73.35;34.60;;;7.50;99.90;;;;;;5097725;28;20036;-77
2023/12/09 02:15:21;;;;;;;85.25;35.85;;;7.60;99.90;;;;;;5080646;28;20092;-76
2023/12/09 02:17:58;;;;;;;76.25;35.70;;;7.60;99.90;;;;;;5097322;28;20150;-77
2023/12/09 02:20:25;;;;;;;81.30;35.13;;;7.60;99.90;;;;;;5097293;28;20119;-76
2023/12/09 02:23:03;;;;;;;77.57;33.65;;;7.60;99.90;;;;;;5097513;28;20055;-76
2023/12/09 02:25:28;;;;;;;67.05;32.53;;;7.60;99.90;;;;;;5080315;28;20055;-77
2023/12/09 02:27:57;;;;;;;78.72;31.30;;;7.70;99.90;;;;;;5097007;28;20036;-76
2023/12/09 02:30:36;;;;;;;81.25;32.75;;;7.70;99.90;;;;;;5097141;28;20035;-76
2023/12/09 02:33:06;;;;;;;70.10;31.70;;;7.70;99.90;;;;;;5097021;28;20043;-76
2023/12/09 02:35:37;;;;;;;73.82;33.40;;;7.70;99.90;;;;;;5096913;28;20053;-76
2023/12/09 02:38:04;;;;;;;61.05;32.25;;;7.70;99.90;;;;;;5097391;28;20044;-77
2023/12/09 02:40:31;;;;;;;66.05;31.73;;;7.70;99.90;;;;;;5079792;28;20036;-76
2023/12/09 02:42:58;;;;;;;71.90;31.05;;;7.60;99.90;;;;;;5097192;28;20491;-76
2023/12/09 02:45:23;;;;;;;72.68;31.63;;;7.70;99.90;;;;;;5080058;28;20479;-76
2023/12/09 02:47:49;;;;;;;75.00;32.22;;;7.70;99.90;;;;;;5096936;28;20089;-75
2023/12/09 02:50:15;;;;;;;67.90;29.38;;;7.70;99.90;;;;;;5063195;28;20042;-71
2023/12/09 02:52:41;;;;;;;65.55;29.55;;;7.60;99.90;;;;;;5096185;28;20036;-71
2023/12/09 02:55:08;;;;;;;72.25;29.77;;;7.70;99.90;;;;;;5096236;28;20406;-71
2023/12/09 02:57:33;;;;;;;71.15;30.83;;;7.70;99.90;;;;;;5095970;28;20054;-70
2023/12/09 03:00:00;;;;;;;72.60;31.35;;;7.60;99.90;;;;;;5096047;28;20123;-70
2023/12/09 03:02:25;;;;;;;76.35;31.05;;;7.70;99.90;;;;;;5079264;28;20039;-71
2023/12/09 03:04:51;;;;;;;76.63;32.22;;;7.60;99.90;;;;;;5096330;28;20476;-71
2023/12/09 03:07:20;;;;;;;66.53;28.30;;;7.60;99.90;;;;;;5079166;28;20040;-71
2023/12/09 03:09:46;;;;;;;60.80;26.63;;;7.60;99.90;;;;;;5096227;28;20483;-71
2023/12/09 03:12:12;;;;;;;69.32;28.55;;;7.60;99.90;;;;;;5095981;28;20044;-71
2023/12/09 03:14:38;;;;;;;48.63;21.13;;;7.60;99.90;;;;;;5078976;28;20063;-70
2023/12/09 03:17:05;;;;;;;69.05;28.65;;;7.60;99.90;;;;;;5079048;28;20048;-70
2023/12/09 03:19:31;;;;;;;67.97;27.17;;;7.60;99.90;;;;;;5078829;28;20039;-71
2023/12/09 03:21:57;;;;;;;54.38;29.27;;;7.60;99.90;;;;;;5095922;28;20036;-71
2023/12/09 03:24:22;;;;;;;123.40;55.13;;;7.70;99.90;;;;;;5114098;28;20108;-71
2023/12/09 03:26:52;;;;;;;64.25;26.77;;;7.60;99.90;;;;;;5095590;28;20039;-71
2023/12/09 03:29:18;;;;;;;60.90;26.10;;;7.70;99.90;;;;;;5095565;28;20391;-71
2023/12/09 03:31:44;;;;;;;58.80;26.00;;;7.60;99.90;;;;;;5095574;28;20097;-71
2023/12/09 03:34:11;;;;;;;62.70;26.77;;;7.60;99.90;;;;;;5095324;28;20047;-71
2023/12/09 03:36:37;;;;;;;61.63;26.50;;;7.70;99.90;;;;;;5095750;28;20038;-70
2023/12/09 03:39:03;;;;;;;72.40;30.15;;;7.60;99.90;;;;;;5095151;28;20035;-70
2023/12/09 03:41:29;;;;;;;57.40;24.92;;;7.60;99.90;;;;;;5095289;28;20074;-70
2023/12/09 03:43:55;;;;;;;1999.90;999.90;;;7.60;99.90;;;;;;5095411;28;20380;-71
2023/12/09 03:46:21;;;;;;;589.35;270.48;;;7.60;99.90;;;;;;5095413;28;20036;-71
2023/12/09 03:48:47;;;;;;;1999.90;999.90;;;7.60;99.90;;;;;;5095242;28;20464;-71
2023/12/09 03:51:13;;;;;;;1999.90;999.90;;;7.60;99.90;;;;;;5095263;28;20438;-71
2023/12/09 03:53:41;;;;;;;56.38;24.73;;;7.60;99.90;;;;;;5095482;28;20376;-71
2023/12/09 03:56:07;;;;;;;207.13;65.95;;;7.60;99.90;;;;;;5078110;28;20075;-71
2023/12/09 03:58:33;;;;;;;1999.90;999.90;;;7.60;99.90;;;;;;5095597;28;20496;-70
2023/12/09 04:00:59;;;;;;;1999.90;999.90;;;7.60;99.90;;;;;;5095439;28;20050;-70
2023/12/09 04:03:27;;;;;;;1999.90;999.90;;;7.60;99.90;;;;;;5095026;28;20040;-71
2023/12/09 04:05:53;;;;;;;1999.90;999.90;;;7.60;99.90;;;;;;5095242;28;20369;-70
2023/12/09 04:08:18;;;;;;;48.08;21.10;;;7.60;99.90;;;;;;5095034;28;20096;-71
2023/12/09 04:10:44;;;;;;;48.05;20.00;;;7.50;99.90;;;;;;5078099;28;20039;-71
2023/12/09 04:13:10;;;;;;;46.97;20.70;;;7.60;99.90;;;;;;5094930;28;20043;-71
2023/12/09 04:15:38;;;;;;;48.95;20.90;;;7.50;99.90;;;;;;5078172;28;20039;-71
2023/12/09 04:18:04;;;;;;;50.05;20.92;;;7.60;99.90;;;;;;5095140;28;20391;-71
2023/12/09 04:20:30;;;;;;;52.08;23.00;;;7.50;99.90;;;;;;5078150;28;20043;-71
2023/12/09 04:22:56;;;;;;;57.17;22.70;;;7.60;99.90;;;;;;5094976;28;20047;-71
2023/12/09 04:25:21;;;;;;;56.33;24.38;;;7.50;99.90;;;;;;5095078;28;20046;-71
2023/12/09 04:27:48;;;;;;;61.97;24.25;;;7.60;99.90;;;;;;5095068;28;20043;-70
2023/12/09 04:30:14;;;;;;;53.55;23.25;;;7.50;99.90;;;;;;5095181;28;20066;-71
2023/12/09 04:32:41;;;;;;;56.13;23.58;;;7.50;99.90;;;;;;5099070;28;20044;-70
2023/12/09 04:35:08;;;;;;;52.20;22.10;;;7.50;99.90;;;;;;5099122;28;20453;-70
2023/12/09 04:37:34;;;;;;;52.65;22.42;;;7.60;99.90;;;;;;5081970;28;20101;-71
2023/12/09 04:40:00;;;;;;;57.28;24.10;;;7.50;99.90;;;;;;5098855;28;20040;-71
2023/12/09 04:42:27;;;;;;;53.45;23.80;;;7.50;99.90;;;;;;5099049;28;20044;-71
2023/12/09 04:44:53;;;;;;;61.05;24.52;;;7.50;99.90;;;;;;5081681;28;20089;-71
2023/12/09 04:47:19;;;;;;;56.92;24.10;;;7.50;99.90;;;;;;5098725;28;20480;-71
2023/12/09 04:49:45;;;;;;;50.97;22.00;;;7.50;99.90;;;;;;5098800;28;20505;-71
2023/12/09 04:52:11;;;;;;;51.05;23.63;;;7.50;99.90;;;;;;5081855;28;20043;-71
2023/12/09 04:54:37;;;;;;;54.60;24.02;;;7.50;99.90;;;;;;5098698;28;20035;-70
2023/12/09 04:57:02;;;;;;;49.20;23.13;;;7.50;99.90;;;;;;5098632;28;20091;-71
2023/12/09 04:59:28;;;;;;;51.75;23.42;;;7.50;99.90;;;;;;5098506;28;20108;-70
2023/12/09 05:01:54;;;;;;;51.70;23.27;;;7.50;99.90;;;;;;5098659;28;20112;-71
2023/12/09 05:04:20;;;;;;;51.53;22.65;;;7.50;99.90;;;;;;5098384;28;20035;-71
2023/12/09 05:06:46;;;;;;;51.45;21.60;;;7.40;99.90;;;;;;5098492;28;20171;-71
2023/12/09 05:09:13;;;;;;;54.20;24.10;;;7.40;99.90;;;;;;5098769;28;20036;-71
2023/12/09 05:11:39;;;;;;;53.13;23.20;;;7.40;99.90;;;;;;5098262;28;20043;-70
2023/12/09 05:14:05;;;;;;;54.38;22.90;;;7.40;99.90;;;;;;5098528;28;20400;-70
2023/12/09 05:16:32;;;;;;;317.85;293.17;;;7.40;99.90;;;;;;5097625;28;20044;-71
2023/12/09 05:18:58;;;;;;;53.20;23.45;;;7.40;99.90;;;;;;5098217;28;20407;-70
2023/12/09 05:21:23;;;;;;;98.32;29.63;;;7.40;99.90;;;;;;5081149;28;20044;-71
2023/12/09 05:23:49;;;;;;;52.90;22.48;;;7.40;99.90;;;;;;5081340;28;20036;-71
2023/12/09 05:26:26;;;;;;;57.78;22.63;;;7.40;99.90;;;;;;5098080;28;20035;-71
2023/12/09 05:28:53;;;;;;;52.55;21.92;;;7.50;99.90;;;;;;5097456;28;20054;-71
2023/12/09 05:31:20;;;;;;;48.58;21.88;;;7.30;99.90;;;;;;5097965;28;20098;-71
2023/12/09 05:33:46;;;;;;;72.35;29.23;;;7.40;99.90;;;;;;5098243;28;20624;-71
2023/12/09 05:36:12;;;;;;;50.78;21.83;;;7.30;99.90;;;;;;5097829;28;20075;-71
2023/12/09 05:38:38;;;;;;;52.70;22.73;;;7.40;99.90;;;;;;5097675;28;20518;-71
2023/12/09 05:41:05;;;;;;;56.05;22.67;;;7.30;99.90;;;;;;5097870;28;20036;-71
2023/12/09 05:43:31;;;;;;;54.08;20.45;;;7.40;99.90;;;;;;5097931;28;20043;-71
2023/12/09 05:45:56;;;;;;;51.67;21.35;;;7.40;99.90;;;;;;5097888;28;20031;-70
2023/12/09 05:48:22;;;;;;;53.53;22.65;;;7.40;99.90;;;;;;5080719;28;20052;-70
2023/12/09 05:50:48;;;;;;;52.53;21.98;;;7.40;99.90;;;;;;5080744;28;20550;-71
2023/12/09 05:53:14;;;;;;;50.22;20.10;;;7.40;99.90;;;;;;5097412;28;20487;-70
2023/12/09 05:55:39;;;;;;;180.70;162.65;;;7.40;99.90;;;;;;5097629;28;20109;-71
2023/12/09 05:58:06;;;;;;;55.75;22.00;;;7.40;99.90;;;;;;5097633;28;20039;-71
2023/12/09 06:00:32;;;;;;;49.10;20.00;;;7.40;99.90;;;;;;5080484;28;20041;-71
2023/12/09 06:02:57;;;;;;;50.45;20.40;;;7.40;99.90;;;;;;5097333;28;20035;-71
2023/12/09 06:05:24;;;;;;;50.75;21.08;;;7.40;99.90;;;;;;5097072;28;20039;-71
2023/12/09 06:07:49;;;;;;;54.17;21.77;;;7.40;99.90;;;;;;5097238;28;20046;-71
2023/12/09 06:10:15;;;;;;;46.47;20.00;;;7.30;99.90;;;;;;5097133;28;20126;-71
2023/12/09 06:12:41;;;;;;;46.53;20.30;;;7.30;99.90;;;;;;5097072;28;20043;-71
2023/12/09 06:15:07;;;;;;;49.25;19.48;;;7.30;99.90;;;;;;5097219;28;20043;-71
2023/12/09 06:17:33;;;;;;;46.78;18.60;;;7.30;99.90;;;;;;5080162;28;20036;-71
2023/12/09 06:19:59;;;;;;;43.80;17.88;;;7.30;99.90;;;;;;5079555;28;20088;-76
2023/12/09 06:22:25;;;;;;;44.50;18.10;;;7.30;99.90;;;;;;5097219;28;20491;-77
2023/12/09 06:24:51;;;;;;;41.60;18.67;;;7.30;99.90;;;;;;5097444;28;20039;-77
2023/12/09 06:27:17;;;;;;;50.72;17.98;;;7.30;99.90;;;;;;5097283;28;20051;-77
2023/12/09 06:29:46;;;;;;;41.03;17.90;;;7.30;99.90;;;;;;5097006;28;20050;-77
2023/12/09 06:32:15;;;;;;;45.75;17.67;;;7.20;99.90;;;;;;5097107;28;20047;-77
2023/12/09 06:34:41;;;;;;;40.58;17.20;;;7.20;99.90;;;;;;5097258;28;20043;-78
2023/12/09 06:37:06;;;;;;;38.13;17.27;;;7.30;99.90;;;;;;5098386;28;20081;-77
2023/12/09 06:39:32;;;;;;;41.00;17.58;;;7.20;99.90;;;;;;5098909;28;20101;-76
2023/12/09 06:41:58;;;;;;;40.90;17.77;;;7.20;99.90;;;;;;5098241;28;20031;-76
2023/12/09 06:44:24;;;;;;;51.00;18.50;;;7.20;99.90;;;;;;5098702;28;20085;-78
2023/12/09 06:46:49;;;;;;;40.28;16.65;;;7.20;99.90;;;;;;5082404;28;20036;-77
2023/12/09 06:49:18;;;;;;;41.13;15.68;;;7.20;99.90;;;;;;5098620;28;20085;-77
2023/12/09 06:51:44;;;;;;;40.45;16.73;;;7.20;99.90;;;;;;5098685;28;20055;-77
2023/12/09 06:54:11;;;;;;;44.60;17.25;;;7.20;99.90;;;;;;5097486;28;20040;-77
2023/12/09 06:56:37;;;;;;;40.80;16.63;;;7.20;99.90;;;;;;5098575;28;20062;-77
2023/12/09 06:59:03;;;;;;;41.92;15.25;;;7.20;99.90;;;;;;5082616;28;20035;-77
2023/12/09 07:01:28;;;;;;;36.33;15.43;;;7.20;99.90;;;;;;5098971;28;20040;-77
2023/12/09 07:03:55;;;;;;;40.80;15.77;;;7.20;99.90;;;;;;5098130;28;20035;-77
2023/12/09 07:06:25;;;;;;;41.40;14.90;;;7.20;99.90;;;;;;5080731;28;20043;-77
2023/12/09 07:08:53;;;;;;;35.50;15.85;;;7.10;99.90;;;;;;5097399;28;20035;-77
2023/12/09 07:11:19;;;;;;;37.55;14.75;;;7.10;99.90;;;;;;5097002;28;20039;-77
2023/12/09 07:13:45;;;;;;;36.90;14.23;;;7.10;99.90;;;;;;5096962;28;20126;-76
2023/12/09 07:16:13;;;;;;;34.95;14.30;;;7.10;99.90;;;;;;5097988;28;20044;-77
2023/12/09 07:18:43;;;;;;;32.95;13.93;;;7.10;99.90;;;;;;5098180;28;20105;-77
2023/12/09 07:21:09;;;;;;;36.15;13.10;;;7.10;99.90;;;;;;5082325;28;20040;-77
2023/12/09 07:23:35;;;;;;;37.20;13.82;;;7.10;99.90;;;;;;5098393;28;20479;-77
2023/12/09 07:26:02;;;;;;;39.47;13.82;;;7.10;99.90;;;;;;5097793;28;20474;-77
2023/12/09 07:28:29;;;;;;;35.15;13.40;;;7.10;99.90;;;;;;5098035;28;20047;-76
2023/12/09 07:30:55;;;;;;;29.23;11.50;;;7.10;99.90;;;;;;5097832;28;20043;-77
2023/12/09 07:33:21;;;;;;;30.95;11.77;;;7.10;99.90;;;;;;5097718;28;20082;-77
2023/12/09 07:35:46;;;;;;;34.15;11.65;;;7.10;99.90;;;;;;5097759;28;20079;-76
2023/12/09 07:38:13;;;;;;;32.00;10.50;;;7.10;99.90;;;;;;5080289;28;20072;-76
2023/12/09 07:40:38;;;;;;;29.70;11.02;;;7.10;99.90;;;;;;5096591;28;20043;-77
2023/12/09 07:43:04;;;;;;;30.80;10.35;;;7.10;99.90;;;;;;5096774;28;20040;-78
2023/12/09 07:45:30;;;;;;;27.55;10.00;;;7.10;99.90;;;;;;5063532;28;20063;-77
2023/12/09 07:47:56;;;;;;;27.33;9.75;;;7.00;99.90;;;;;;5097274;28;20406;-77
2023/12/09 07:50:22;;;;;;;27.75;9.02;;;7.00;99.90;;;;;;5080395;28;20077;-77
2023/12/09 07:52:48;;;;;;;34.33;10.18;;;6.90;99.90;;;;;;5080022;28;20453;-77
2023/12/09 07:55:13;;;;;;;27.05;7.97;;;6.90;99.90;;;;;;5096987;28;20036;-76
2023/12/09 07:57:39;;;;;;;1999.90;999.90;;;6.90;99.90;;;;;;5079566;28;20055;-77
2023/12/09 08:00:07;;;;;;;28.48;7.88;;;6.90;99.90;;;;;;5079102;28;20043;-77
2023/12/09 08:02:33;;;;;;;28.65;7.47;;;6.90;99.90;;;;;;5095975;28;20075;-77
2023/12/09 08:04:58;;;;;;;30.02;7.75;;;6.80;99.90;;;;;;5079114;28;20076;-77
2023/12/09 08:07:24;;;;;;;26.75;7.03;;;6.90;99.90;;;;;;5067231;28;20078;-77
2023/12/09 08:09:50;;;;;;;22.92;6.80;;;6.80;99.90;;;;;;5080855;28;20171;-77
2023/12/09 08:12:15;;;;;;;26.55;6.68;;;6.80;99.90;;;;;;5096053;28;20047;-76
2023/12/09 08:14:41;;;;;;;26.52;6.53;;;6.80;99.90;;;;;;5096577;28;20399;-77
2023/12/09 08:17:07;;;;;;;23.08;5.93;;;6.80;99.90;;;;;;5095485;28;20036;-76
2023/12/09 08:19:33;;;;;;;21.00;6.43;;;6.90;99.90;;;;;;5078584;28;20040;-77
2023/12/09 08:21:59;;;;;;;25.27;6.40;;;6.80;99.90;;;;;;5095719;28;20032;-77
2023/12/09 08:24:25;;;;;;;22.73;6.13;;;6.90;99.90;;;;;;5095849;28;20051;-77
2023/12/09 08:26:51;;;;;;;20.52;6.30;;;6.90;99.90;;;;;;5096054;28;20039;-77
2023/12/09 08:29:17;;;;;;;20.35;5.78;;;6.80;99.90;;;;;;5095844;28;20043;-77
2023/12/09 08:31:49;;;;;;;22.02;5.35;;;6.90;99.90;;;;;;5095608;28;20050;-77
2023/12/09 08:34:18;;;;;;;20.60;5.22;;;6.80;99.90;;;;;;5095967;28;20062;-77
2023/12/09 08:36:44;;;;;;;18.30;4.63;;;6.80;99.90;;;;;;5095889;28;20122;-77
2023/12/09 08:39:10;;;;;;;22.08;5.35;;;6.90;99.90;;;;;;5095870;28;20048;-77
2023/12/09 08:41:37;;;;;;;18.30;4.68;;;6.90;99.90;;;;;;5096247;28;20127;-76
2023/12/09 08:44:03;;;;;;;21.70;4.95;;;6.90;99.90;;;;;;5095584;28;20043;-76
2023/12/09 08:46:30;;;;;;;19.92;4.82;;;6.80;99.90;;;;;;5095981;28;20028;-77
2023/12/09 08:48:56;;;;;;;20.58;4.75;;;6.90;99.90;;;;;;5095843;28;20051;-77
2023/12/09 08:51:22;;;;;;;23.15;5.05;;;6.90;99.90;;;;;;5095619;28;20043;-77
2023/12/09 08:53:49;;;;;;;17.67;4.70;;;6.90;99.90;;;;;;5095611;28;20052;-77
2023/12/09 08:56:15;;;;;;;17.55;4.60;;;6.90;99.90;;;;;;5095627;28;20106;-78
2023/12/09 08:58:40;;;;;;;17.58;4.80;;;6.90;99.90;;;;;;5095363;28;20052;-77
2023/12/09 09:01:06;;;;;;;21.13;5.05;;;6.90;99.90;;;;;;5095202;28;20495;-77
2023/12/09 09:03:32;;;;;;;18.13;4.35;;;7.00;99.90;;;;;;5095533;28;20047;-77
2023/12/09 09:05:58;;;;;;;21.65;4.30;;;7.00;99.90;;;;;;5095303;28;20039;-77
2023/12/09 09:08:23;;;;;;;21.05;4.72;;;7.00;99.90;;;;;;5095839;28;20458;-77
2023/12/09 09:10:49;;;;;;;21.23;4.80;;;7.00;99.90;;;;;;5078414;28;20044;-77
2023/12/09 09:13:15;;;;;;;17.00;4.68;;;7.10;99.90;;;;;;5095270;28;20039;-77
2023/12/09 09:15:41;;;;;;;18.50;4.53;;;7.10;99.90;;;;;;5095510;28;20122;-77
2023/12/09 09:18:07;;;;;;;18.58;4.68;;;7.10;99.90;;;;;;5098475;28;20050;-77
2023/12/09 09:20:33;;;;;;;18.15;4.00;;;7.20;99.90;;;;;;5082337;28;20130;-77
2023/12/09 09:22:59;;;;;;;18.25;3.90;;;7.20;99.90;;;;;;5098902;28;20036;-77
2023/12/09 09:25:25;;;;;;;20.92;4.50;;;7.30;99.90;;;;;;5098763;28;20039;-77
2023/12/09 09:27:51;;;;;;;16.20;4.43;;;7.30;99.90;;;;;;5098733;28;20078;-77
2023/12/09 09:30:20;;;;;;;16.70;4.30;;;7.40;99.90;;;;;;5098714;28;20066;-77
2023/12/09 09:32:46;;;;;;;19.13;4.13;;;7.40;99.90;;;;;;5098796;28;20135;-77
2023/12/09 09:35:12;;;;;;;18.85;4.07;;;7.50;99.90;;;;;;5098538;28;20040;-77
2023/12/09 09:37:38;;;;;;;15.52;3.92;;;7.50;99.90;;;;;;5098013;28;20040;-78
2023/12/09 09:40:05;;;;;;;19.65;3.97;;;7.60;99.90;;;;;;5081467;28;20044;-78
2023/12/09 09:42:36;;;;;;;16.02;4.10;;;7.70;99.90;;;;;;5082190;28;20162;-77
2023/12/09 09:45:20;;;;;;;14.10;3.70;;;7.70;99.90;;;;;;5098922;28;20073;-77
2023/12/09 09:47:48;;;;;;;17.25;4.43;;;7.80;99.90;;;;;;5098531;28;20400;-77
2023/12/09 09:50:25;;;;;;;20.63;4.68;;;7.80;99.90;;;;;;5098783;28;20044;-77
2023/12/09 09:52:53;;;;;;;14.80;4.47;;;7.80;99.90;;;;;;5098462;28;20043;-77
2023/12/09 09:55:21;;;;;;;16.55;3.60;;;7.80;99.90;;;;;;5098740;28;20039;-78
2023/12/09 09:57:52;;;;;;;17.05;4.38;;;7.80;99.90;;;;;;5098708;28;20048;-78
2023/12/09 10:00:19;;;;;;;19.42;4.80;;;7.80;99.90;;;;;;5097522;28;20047;-71
2023/12/09 10:02:50;;;;;;;15.60;4.40;;;7.80;99.90;;;;;;5097278;28;20044;-71
2023/12/09 10:05:17;;;;;;;19.23;4.80;;;7.80;99.90;;;;;;5097303;28;20195;-71
2023/12/09 10:07:44;;;;;;;14.77;4.13;;;7.80;99.90;;;;;;5097402;28;20512;-70
2023/12/09 10:10:16;;;;;;;18.65;3.83;;;7.80;99.90;;;;;;5097224;28;20391;-71
2023/12/09 10:12:42;;;;;;;17.70;3.78;;;7.80;99.90;;;;;;5097102;28;20048;-71
2023/12/09 10:15:09;;;;;;;18.83;3.78;;;7.80;99.90;;;;;;5097355;28;20505;-71
2023/12/09 10:17:35;;;;;;;13.40;4.15;;;7.90;99.90;;;;;;5063768;28;20522;-71
2023/12/09 10:20:01;;;;;;;17.20;4.05;;;7.90;99.90;;;;;;5096947;28;20043;-71
2023/12/09 10:22:27;;;;;;;15.15;3.72;;;7.90;99.90;;;;;;5097054;28;20100;-71
2023/12/09 10:24:54;;;;;;;15.27;3.85;;;8.00;99.90;;;;;;5096819;28;20039;-70
2023/12/09 10:27:24;;;;;;;15.02;4.20;;;8.00;99.90;;;;;;5097012;28;20032;-70
2023/12/09 10:29:52;;;;;;;12.68;3.83;;;8.00;99.90;;;;;;5095819;28;20039;-71
2023/12/09 10:32:21;;;;;;;16.40;4.18;;;8.10;99.90;;;;;;5096612;28;20130;-71
2023/12/09 10:34:50;;;;;;;11.77;3.47;;;8.10;99.90;;;;;;5096722;28;20047;-71
2023/12/09 10:37:17;;;;;;;13.32;4.03;;;8.10;99.90;;;;;;5096709;28;20048;-71
2023/12/09 10:39:47;;;;;;;13.77;3.70;;;8.20;99.90;;;;;;5096648;28;20045;-71
2023/12/09 10:42:13;;;;;;;16.63;3.95;;;8.20;99.90;;;;;;5096585;28;20040;-71
2023/12/09 10:44:40;;;;;;;14.35;3.50;;;8.20;99.90;;;;;;5096833;28;20364;-71
2023/12/09 10:47:06;;;;;;;12.10;3.33;;;8.20;99.90;;;;;;5096481;28;20040;-71
2023/12/09 10:49:32;;;;;;;15.27;4.15;;;8.20;99.90;;;;;;5079983;28;20402;-71
2023/12/09 10:51:57;;;;;;;15.07;3.75;;;8.20;99.90;;;;;;5079738;28;20040;-70
2023/12/09 10:54:23;;;;;;;13.40;3.40;;;8.20;99.90;;;;;;5096412;28;20088;-70
2023/12/09 10:56:49;;;;;;;15.15;3.83;;;8.10;99.90;;;;;;5095988;28;20055;-71
2023/12/09 10:59:19;;;;;;;10.77;3.38;;;8.20;99.90;;;;;;5096130;28;20096;-71
2023/12/09 11:01:46;;;;;;;12.93;3.50;;;8.20;99.90;;;;;;5096233;28;20081;-71
2023/12/09 11:04:15;;;;;;;12.70;3.67;;;8.20;99.90;;;;;;5096449;28;20078;-72
2023/12/09 11:06:43;;;;;;;14.32;3.53;;;8.20;99.90;;;;;;5096140;28;20067;-71
2023/12/09 11:09:10;;;;;;;11.85;3.30;;;8.20;99.90;;;;;;5079511;28;20043;-78
2023/12/09 11:11:36;;;;;;;14.00;3.47;;;8.20;99.90;;;;;;5096632;28;20035;-78
2023/12/09 11:14:07;;;;;;;10.57;3.08;;;8.20;99.90;;;;;;5096402;28;20043;-77
2023/12/09 11:16:33;;;;;;;11.68;3.40;;;8.30;99.90;;;;;;5096608;28;20118;-77
2023/12/09 11:18:59;;;;;;;13.45;3.22;;;8.30;99.90;;;;;;5079796;28;20055;-77
2023/12/09 11:21:29;;;;;;;11.73;3.22;;;8.30;99.90;;;;;;5096641;28;20032;-77
2023/12/09 11:23:56;;;;;;;11.23;3.20;;;8.30;99.90;;;;;;5096314;28;20116;-77
2023/12/09 11:26:33;;;;;;;10.55;2.88;;;8.30;99.90;;;;;;5096677;28;20062;-78
2023/12/09 11:29:06;;;;;;;13.10;2.95;;;8.30;99.90;;;;;;5096113;28;20048;-77
2023/12/09 11:31:36;;;;;;;12.65;3.08;;;8.30;99.90;;;;;;5079439;28;20043;-77
2023/12/09 11:34:06;;;;;;;9.80;3.20;;;8.40;99.90;;;;;;5096360;28;20036;-78
2023/12/09 11:36:36;;;;;;;11.30;2.72;;;8.40;99.90;;;;;;5096453;28;20054;-78
2023/12/09 11:39:07;;;;;;;11.27;3.20;;;8.40;99.90;;;;;;5114216;28;20048;-78
2023/12/09 11:41:37;;;;;;;10.95;2.97;;;8.40;99.90;;;;;;5062673;28;20107;-77
2023/12/09 11:44:03;;;;;;;8.95;2.35;;;8.30;99.90;;;;;;5085955;28;20035;-79
2023/12/09 11:46:31;;;;;;;8.05;2.70;;;8.40;99.90;;;;;;5096312;28;20052;-77
2023/12/09 11:48:57;;;;;;;9.07;2.13;;;8.50;99.90;;;;;;5096007;28;20047;-78
2023/12/09 11:51:24;;;;;;;12.63;2.88;;;8.50;99.90;;;;;;5096443;28;20039;-78
2023/12/09 11:53:57;;;;;;;10.13;2.63;;;8.40;99.90;;;;;;5096468;28;20078;-78
2023/12/09 11:56:24;;;;;;;6.75;2.10;;;8.40;99.90;;;;;;5079178;28;20090;-77
2023/12/09 11:58:50;;;;;;;8.43;1.85;;;8.40;99.90;;;;;;5095937;28;20044;-78
2023/12/09 12:01:17;;;;;;;8.13;2.40;;;8.40;99.90;;;;;;5095675;28;20127;-77
2023/12/09 12:03:47;;;;;;;10.05;2.67;;;8.40;99.90;;;;;;5095855;28;20051;-77
2023/12/09 12:06:15;;;;;;;11.68;3.05;;;8.30;99.90;;;;;;5095595;28;20032;-77
2023/12/09 12:08:42;;;;;;;10.98;2.83;;;8.30;99.90;;;;;;5078759;28;20100;-77
2023/12/09 12:11:08;;;;;;;11.23;3.05;;;8.30;99.90;;;;;;5095582;28;20048;-78
2023/12/09 12:13:34;;;;;;;10.93;3.10;;;8.30;99.90;;;;;;5095858;28;20050;-77
2023/12/09 12:15:59;;;;;;;10.13;2.33;;;8.30;99.90;;;;;;5095341;28;20044;-77
2023/12/09 12:18:27;;;;;;;10.85;2.50;;;8.40;99.90;;;;;;5095309;28;20039;-70
2023/12/09 12:20:53;;;;;;;8.68;2.58;;;8.40;99.90;;;;;;5094856;28;20130;-70
2023/12/09 12:23:20;;;;;;;11.50;3.00;;;8.40;99.90;;;;;;5094780;28;20075;-70
2023/12/09 12:25:50;;;;;;;10.40;2.58;;;8.30;99.90;;;;;;5078279;28;20081;-71
2023/12/09 12:28:16;;;;;;;9.20;2.50;;;8.30;99.90;;;;;;5094945;28;20043;-70
2023/12/09 12:30:42;;;;;;;10.48;2.65;;;8.40;99.90;;;;;;5078412;28;20039;-70
2023/12/09 12:33:08;;;;;;;10.38;2.78;;;8.40;99.90;;;;;;5078002;28;20032;-70
2023/12/09 12:35:34;;;;;;;12.05;2.70;;;8.40;99.90;;;;;;5078352;28;20395;-70